METAR stanice u blizini

 

LYBE - Beograd / Surčin, Srbija
Ažurirano: 25/04/2019 09:30
Vedro
Vedro
 Pravac vetra JI
Vetar: JI 19 km/h
Temperatura: 20°C
Tačka rose: 10°C
Vlažnost: 53%
Pritisak: 1020 hPa
Pregled: Vedro
Vidljivost: greater than 10 km
2019/04/25 07:30 LYBE 250730Z 14010KT CAVOK 20/10 Q1020 NOSIG
LYBT - Beograd / Batajnica, Srbija
Ažurirano: 25/04/2019 09:30
Vedro
Vedro
 Pravac vetra I
Vetar: I 17 km/h
Temperatura: 19°C
Tačka rose: 10°C
Vlažnost: 56%
Pritisak: 1020 hPa
Pregled: Vedro
Vidljivost: greater than 10 km
2019/04/25 07:30 LYBT 250730Z 10009KT CAVOK 19/10 Q1020 NOSIG
LYVR - Vršac, Srbija
Ažurirano: 25/04/2019 09:30
Vedro
Vedro
 Pravac vetra JI
Vetar: JI 37 km/h
Temperatura: 19°C
Tačka rose: 8°C
Vlažnost: 49%
Pritisak: 1021 hPa
Pregled: Vedro
Vidljivost: greater than 10 km
2019/04/25 07:30 LYVR 250730Z 14020KT CAVOK 19/08 Q1021 NOSIG
 
LYKV - Lađevci, Srbija
Ažurirano: 25/04/2019 09:30
Vedro
Vedro
 Pravac vetra JJI
Vetar: JJI 15 km/h
Temperatura: 17°C
Tačka rose: 10°C
Vlažnost: 64%
Pritisak: 1022 hPa
Pregled: Vedro
Vidljivost: greater than 10 km
2019/04/25 07:30 LYKV 250730Z 16008KT 130V190 CAVOK 17/10 Q1022 NOSIG
LYNI - Niš, Srbija
Ažurirano: 25/04/2019 09:30
Vedro
Vedro
 Pravac vetra IJI
Vetar: IJI 7 km/h
Temperatura: 18°C
Tačka rose: 9°C
Vlažnost: 56%
Pritisak: 1023 hPa
Pregled: Vedro
Vidljivost: greater than 10 km
2019/04/25 07:30 LYNI 250730Z 11004KT 040V150 CAVOK 18/09 Q1023 NOSIG
BKPR - Priština, Srbija
Ažurirano: 25/04/2019 09:30
Vedro
Vedro
 Pravac vetra J
Vetar: J 11 km/h
Temperatura: 16°C
Tačka rose: 9°C
Vlažnost: 63%
Pritisak: 1024 hPa
Pregled: Vedro
Vidljivost: greater than 10 km
2019/04/25 07:30 BKPR 250730Z 17006KT 140V200 CAVOK 16/09 Q1024 NOSIG
 
LHPP - Pecs / Pogany, Hungary
Ažurirano: 25/04/2019 09:15
Vedro
Vedro
 Pravac vetra J
Vetar: J 4 km/h
Temperatura: 18°C
Tačka rose: 11°C
Vlažnost: 64%
Pritisak: 1020 hPa
Pregled: Vedro
Vidljivost: greater than 10 km
2019/04/25 07:15 LHPP 250715Z 18002KT CAVOK 18/11 Q1020
LHUD - Szeged, Hungary
Ažurirano: 25/04/2019 01:45
NOT Current
Vedro
Vedro
 Pravac vetra JJI
Vetar: JJI 24 km/h
Temperatura: 16°C
Tačka rose: 8°C
Vlažnost: 59%
Pritisak: 1018 hPa
Pregled: Vedro
Vidljivost: greater than 10 km
2019/04/24 23:45 LHUD 242345Z 16013KT CAVOK 16/08 Q1018
LRTR - Timisoara, Romania
Ažurirano: 25/04/2019 09:30
Vedro
Vedro
 Pravac vetra JJI
Vetar: JJI 15 km/h
Temperatura: 19°C
Tačka rose: 11°C
Vlažnost: 60%
Pritisak: 1021 hPa
Pregled: Vedro
Vidljivost: greater than 10 km
2019/04/25 07:30 LRTR 250730Z 15008KT CAVOK 19/11 Q1021
 
LRCV - Craiova, Romania
Ažurirano: 25/04/2019 09:30
Vedro
Vedro
 Pravac vetra I
Vetar: I 11 km/h
Temperatura: 13°C
Tačka rose: 6°C
Vlažnost: 63%
Pritisak: 1024 hPa
Pregled: Vedro
Vidljivost: greater than 10 km
2019/04/25 07:30 LRCV 250730Z 08006KT 040V110 CAVOK 13/06 Q1024
LBSF - Sofia, Bulgaria
Ažurirano: 25/04/2019 09:30
Vedro
Vedro
 Pravac vetra ISI
Vetar: ISI 6 km/h
Temperatura: 15°C
Tačka rose: 9°C
Vlažnost: 68%
Pritisak: 1024 hPa
Pregled: Vedro
Vidljivost: greater than 10 km
2019/04/25 07:30 LBSF 250730Z 07003KT 350V150 CAVOK 15/09 Q1024 NOSIG
LWSK - Skoplje, Makedonija
Ažurirano: 25/04/2019 09:30
Vedro
Vedro
 Pravac vetra calm
Vetar: Tišina
Temperatura: 16°C
Tačka rose: 9°C
Vlažnost: 63%
Pritisak: 1025 hPa
Pregled: Vedro
Vidljivost: greater than 10 km
2019/04/25 07:30 LWSK 250730Z 00000KT CAVOK 16/09 Q1025 NOSIG
 
LYPG - Podgorica, Crna Gora
Ažurirano: 25/04/2019 09:00
Vedro
Vedro
 Pravac vetra SSZ
Vetar: SSZ 7 km/h
Temperatura: 19°C
Tačka rose: 9°C
Vlažnost: 52%
Pritisak: 1022 hPa
Pregled: Vedro
Vidljivost: greater than 10 km
2019/04/25 07:00 LYPG 250700Z 33004KT CAVOK 19/09 Q1022 NOSIG
LQSA - Sarajevo, Bosna i Hercegovina
Ažurirano: 25/04/2019 09:30
Vedro
Vedro
 Pravac vetra ZSZ
Vetar: ZSZ 6 km/h
Temperatura: 17°C
Tačka rose: 10°C
Vlažnost: 64%
Pritisak: 1021 hPa
Pregled: Vedro
Vidljivost: greater than 10 km
2019/04/25 07:30 LQSA 250730Z 29003KT 210V350 CAVOK 17/10 Q1021 NOSIG
LDOS - Osijek, Hrvatksa
Ažurirano: 25/04/2019 09:30
Vedro
Vedro
 Pravac vetra J
Vetar: J 13 km/h
Temperatura: 19°C
Tačka rose: 13°C
Vlažnost: 68%
Pritisak: 1019 hPa
Pregled: Vedro
Vidljivost: greater than 10 km
2019/04/25 07:30 LDOS 250730Z 17007KT CAVOK 19/13 Q1019